Anglian Lady — VOLP — position and weather

sailwx.info

Track history (hours):
 
Tides and Currents Weather Stations Pressure Air Temp Water Temp Dewpoint Dewpoint Depression Visibility Wind Speed Wind Dir Waves Ship Positions

Anglian Lady

Last reported at 2014-Sep-21 06:25 UTC. Time now 2014-Sep-21 22:14 UTC.
Position N 45°52' W 084°05'.

Length 32 m.

Type: Tug. MMSI: 316002238.

Date/timePositionNaut miles runAvg speedWind from/ knotsBaromVisibWave heightAir tempDewpointWater temp
2014-Sep-21 06:25N 45°52' W 084°05'5 5.9
2014-Sep-21 05:34N 45°51' W 084°11'6 6.0
2014-Sep-21 04:34N 45°50' W 084°20'6 6.0
2014-Sep-21 03:34N 45°50' W 084°29'6 6.5
2014-Sep-21 02:33N 45°50' W 084°38'7 6.9
2014-Sep-21 01:34N 45°49' W 084°48'6 6.2
2014-Sep-21 00:34N 45°49' W 084°56'6 6.2
2014-Sep-20 23:34N 45°50' W 085°05'5 4.6
2014-Sep-20 22:34N 45°46' W 085°09'6 5.9
2014-Sep-20 21:34N 45°41' W 085°14'6 6.3
2014-Sep-20 20:34N 45°36' W 085°19'6 6.4
2014-Sep-20 19:34N 45°31' W 085°24'7 6.5
2014-Sep-20 18:34N 45°26' W 085°30'6 6.4
2014-Sep-20 17:34N 45°20' W 085°35'6 6.1
2014-Sep-20 16:34N 45°16' W 085°41'6 6.3
2014-Sep-20 15:33N 45°11' W 085°46'6 6.4
2014-Sep-20 14:33N 45°05' W 085°52'  
2014-Sep-16 11:33N 45°47' W 086°04'7 7.3
2014-Sep-16 10:33N 45°51' W 085°56'7 6.7
2014-Sep-16 09:33N 45°54' W 085°47'7 7.1
2014-Sep-16 08:33N 45°54' W 085°37'7 7.2
2014-Sep-16 07:33N 45°53' W 085°26'7 7.2
2014-Sep-16 06:33N 45°52' W 085°16'7 7.4
2014-Sep-16 05:33N 45°51' W 085°06'7 7.4
2014-Sep-16 04:33N 45°50' W 084°55'8 7.6
2014-Sep-16 03:33N 45°49' W 084°44'7 7.3
2014-Sep-16 02:33N 45°51' W 084°34'7 7.4
2014-Sep-16 01:33N 45°52' W 084°24'  
Track history (hours):
 
Tides and Currents Weather Stations Pressure Air Temp Water Temp Dewpoint Dewpoint Depression Visibility Wind Speed Wind Dir Waves Ship Positions

Anglian Lady

Last reported at 2014-Sep-21 06:25 UTC. Time now 2014-Sep-21 22:14 UTC.
Position N 45°52' W 084°05'.

Length 32 m.

Type: Tug. MMSI: 316002238.

Date/timePositionNaut miles runAvg speedWind from/ knotsBaromVisibWave heightAir tempDewpointWater temp
2014-Sep-21 06:25N 45°52' W 084°05'5 5.9
2014-Sep-21 05:34N 45°51' W 084°11'6 6.0
2014-Sep-21 04:34N 45°50' W 084°20'6 6.0
2014-Sep-21 03:34N 45°50' W 084°29'6 6.5
2014-Sep-21 02:33N 45°50' W 084°38'7 6.9
2014-Sep-21 01:34N 45°49' W 084°48'6 6.2
2014-Sep-21 00:34N 45°49' W 084°56'6 6.2
2014-Sep-20 23:34N 45°50' W 085°05'5 4.6
2014-Sep-20 22:34N 45°46' W 085°09'6 5.9
2014-Sep-20 21:34N 45°41' W 085°14'6 6.3
2014-Sep-20 20:34N 45°36' W 085°19'6 6.4
2014-Sep-20 19:34N 45°31' W 085°24'7 6.5
2014-Sep-20 18:34N 45°26' W 085°30'6 6.4
2014-Sep-20 17:34N 45°20' W 085°35'6 6.1
2014-Sep-20 16:34N 45°16' W 085°41'6 6.3
2014-Sep-20 15:33N 45°11' W 085°46'6 6.4
2014-Sep-20 14:33N 45°05' W 085°52'  
2014-Sep-16 11:33N 45°47' W 086°04'7 7.3
2014-Sep-16 10:33N 45°51' W 085°56'7 6.7
2014-Sep-16 09:33N 45°54' W 085°47'7 7.1
2014-Sep-16 08:33N 45°54' W 085°37'7 7.2
2014-Sep-16 07:33N 45°53' W 085°26'7 7.2
2014-Sep-16 06:33N 45°52' W 085°16'7 7.4
2014-Sep-16 05:33N 45°51' W 085°06'7 7.4
2014-Sep-16 04:33N 45°50' W 084°55'8 7.6
2014-Sep-16 03:33N 45°49' W 084°44'7 7.3
2014-Sep-16 02:33N 45°51' W 084°34'7 7.4
2014-Sep-16 01:33N 45°52' W 084°24'  

Dump ship's entire track history